sensor_id;sensor_type;location;lat;lon;timestamp;pressure;altitude;pressure_sealevel;temperature;humidity
56052;BME280;41919;42.648;23.384;2023-06-10T00:01:40;94130.16;;;17.66;100.00
56052;BME280;41919;42.648;23.384;2023-06-10T00:04:06;94167.34;;;18.07;100.00
56052;BME280;41919;42.648;23.384;2023-06-10T00:06:32;94201.50;;;18.29;100.00
56052;BME280;41919;42.648;23.384;2023-06-10T00:09:00;94143.09;;;17.62;100.00
56052;BME280;41919;42.648;23.384;2023-06-10T00:11:26;94206.03;;;17.71;100.00
56052;BME280;41919;42.648;23.384;2023-06-10T00:13:51;94190.19;;;17.33;100.00
56052;BME280;41919;42.648;23.384;2023-06-10T00:16:16;94202.19;;;17.46;100.00
56052;BME280;41919;42.648;23.384;2023-06-10T00:18:43;94195.66;;;17.64;100.00
56052;BME280;41919;42.648;23.384;2023-06-10T00:21:09;94199.72;;;17.82;100.00
56052;BME280;41919;42.648;23.384;2023-06-10T00:23:35;94193.97;;;17.90;100.00
56052;BME280;41919;42.648;23.384;2023-06-10T00:26:02;94129.06;;;17.62;100.00
56052;BME280;41919;42.648;23.384;2023-06-10T00:28:28;94204.63;;;18.16;100.00
56052;BME280;41919;42.648;23.384;2023-06-10T00:30:53;94197.00;;;18.14;100.00
56052;BME280;41919;42.648;23.384;2023-06-10T00:33:19;94146.03;;;17.71;100.00
56052;BME280;41919;42.648;23.384;2023-06-10T00:35:44;94156.84;;;17.64;100.00
56052;BME280;41919;42.648;23.384;2023-06-10T00:38:10;94196.34;;;17.87;100.00
56052;BME280;41919;42.648;23.384;2023-06-10T00:40:39;94133.50;;;17.46;100.00
56052;BME280;41919;42.648;23.384;2023-06-10T00:43:06;94149.91;;;17.53;100.00
56052;BME280;41919;42.648;23.384;2023-06-10T00:45:31;94192.28;;;17.69;100.00
56052;BME280;41919;42.648;23.384;2023-06-10T00:47:58;94171.06;;;17.58;100.00
56052;BME280;41919;42.648;23.384;2023-06-10T00:50:23;94178.47;;;17.61;100.00
56052;BME280;41919;42.648;23.384;2023-06-10T00:52:49;94149.22;;;17.25;100.00
56052;BME280;41919;42.648;23.384;2023-06-10T00:55:16;94188.81;;;17.20;100.00
56052;BME280;41919;42.648;23.384;2023-06-10T00:57:44;94204.91;;;17.19;100.00
56052;BME280;41919;42.648;23.384;2023-06-10T01:00:11;94207.19;;;17.10;100.00
56052;BME280;41919;42.648;23.384;2023-06-10T01:02:37;94138.50;;;16.67;100.00
56052;BME280;41919;42.648;23.384;2023-06-10T01:05:03;94193.47;;;17.08;100.00
56052;BME280;41919;42.648;23.384;2023-06-10T01:08:03;94132.97;;;16.69;100.00
56052;BME280;41919;42.648;23.384;2023-06-10T01:10:43;94207.84;;;17.28;100.00
56052;BME280;41919;42.648;23.384;2023-06-10T01:13:13;94193.63;;;17.29;100.00
56052;BME280;41919;42.648;23.384;2023-06-10T01:15:39;94185.50;;;17.40;100.00
56052;BME280;41919;42.648;23.384;2023-06-10T01:18:09;94149.53;;;17.34;100.00
56052;BME280;41919;42.648;23.384;2023-06-10T01:20:36;94214.25;;;17.79;100.00
56052;BME280;41919;42.648;23.384;2023-06-10T01:23:05;94206.13;;;17.86;100.00
56052;BME280;41919;42.648;23.384;2023-06-10T01:25:32;94199.28;;;17.95;100.00
56052;BME280;41919;42.648;23.384;2023-06-10T01:31:13;94209.41;;;18.09;100.00
56052;BME280;41919;42.648;23.384;2023-06-10T01:33:43;94192.72;;;18.08;100.00
56052;BME280;41919;42.648;23.384;2023-06-10T01:36:11;94201.50;;;18.24;100.00
56052;BME280;41919;42.648;23.384;2023-06-10T01:38:41;94199.38;;;18.21;100.00
56052;BME280;41919;42.648;23.384;2023-06-10T01:41:08;94197.31;;;18.33;100.00
56052;BME280;41919;42.648;23.384;2023-06-10T01:43:37;94152.28;;;18.13;100.00
56052;BME280;41919;42.648;23.384;2023-06-10T01:46:03;94216.66;;;18.39;100.00
56052;BME280;41919;42.648;23.384;2023-06-10T01:48:28;94196.75;;;18.26;100.00
56052;BME280;41919;42.648;23.384;2023-06-10T01:50:53;94203.00;;;17.99;100.00
56052;BME280;41919;42.648;23.384;2023-06-10T01:53:21;94157.13;;;17.25;100.00
56052;BME280;41919;42.648;23.384;2023-06-10T01:55:47;94185.72;;;17.34;100.00
56052;BME280;41919;42.648;23.384;2023-06-10T01:58:12;94173.34;;;17.39;100.00
56052;BME280;41919;42.648;23.384;2023-06-10T02:00:38;94190.75;;;17.35;100.00
56052;BME280;41919;42.648;23.384;2023-06-10T02:03:03;94198.75;;;17.46;100.00
56052;BME280;41919;42.648;23.384;2023-06-10T02:05:28;94120.91;;;16.78;100.00
56052;BME280;41919;42.648;23.384;2023-06-10T02:07:54;94202.00;;;17.20;100.00
56052;BME280;41919;42.648;23.384;2023-06-10T02:10:19;94197.28;;;17.28;100.00
56052;BME280;41919;42.648;23.384;2023-06-10T02:12:45;94188.34;;;17.29;100.00
56052;BME280;41919;42.648;23.384;2023-06-10T02:15:10;94163.72;;;17.23;100.00
56052;BME280;41919;42.648;23.384;2023-06-10T02:17:35;94127.91;;;16.95;100.00
56052;BME280;41919;42.648;23.384;2023-06-10T02:20:01;94183.09;;;17.39;100.00
56052;BME280;41919;42.648;23.384;2023-06-10T02:22:31;94182.91;;;17.46;100.00
56052;BME280;41919;42.648;23.384;2023-06-10T02:24:57;94168.63;;;17.41;100.00
56052;BME280;41919;42.648;23.384;2023-06-10T02:27:22;94130.72;;;17.25;100.00
56052;BME280;41919;42.648;23.384;2023-06-10T02:29:47;94170.53;;;17.56;100.00
56052;BME280;41919;42.648;23.384;2023-06-10T02:32:13;94162.56;;;17.46;100.00
56052;BME280;41919;42.648;23.384;2023-06-10T02:34:38;94177.31;;;17.42;100.00
56052;BME280;41919;42.648;23.384;2023-06-10T02:37:04;94099.63;;;16.90;100.00
56052;BME280;41919;42.648;23.384;2023-06-10T02:39:29;94163.56;;;17.40;100.00
56052;BME280;41919;42.648;23.384;2023-06-10T02:41:55;94149.28;;;17.36;100.00
56052;BME280;41919;42.648;23.384;2023-06-10T02:44:20;94158.78;;;17.37;100.00
56052;BME280;41919;42.648;23.384;2023-06-10T02:46:46;94164.59;;;17.34;100.00
56052;BME280;41919;42.648;23.384;2023-06-10T02:49:12;94168.53;;;17.26;100.00
56052;BME280;41919;42.648;23.384;2023-06-10T02:51:38;94138.75;;;16.98;100.00
56052;BME280;41919;42.648;23.384;2023-06-10T02:54:04;94109.41;;;16.90;100.00
56052;BME280;41919;42.648;23.384;2023-06-10T02:56:30;94164.78;;;17.22;100.00
56052;BME280;41919;42.648;23.384;2023-06-10T02:58:57;94161.78;;;17.08;100.00
56052;BME280;41919;42.648;23.384;2023-06-10T03:01:22;94151.13;;;16.93;100.00
56052;BME280;41919;42.648;23.384;2023-06-10T03:03:48;94157.78;;;17.00;100.00
56052;BME280;41919;42.648;23.384;2023-06-10T03:06:15;94115.75;;;16.61;100.00
56052;BME280;41919;42.648;23.384;2023-06-10T03:08:41;94141.19;;;16.73;100.00
56052;BME280;41919;42.648;23.384;2023-06-10T03:11:06;94147.72;;;16.70;100.00
56052;BME280;41919;42.648;23.384;2023-06-10T03:13:32;94154.66;;;16.76;100.00
56052;BME280;41919;42.648;23.384;2023-06-10T03:15:58;94134.41;;;16.50;100.00
56052;BME280;41919;42.648;23.384;2023-06-10T03:18:27;94154.56;;;16.66;100.00
56052;BME280;41919;42.648;23.384;2023-06-10T03:20:53;94167.75;;;16.66;100.00
56052;BME280;41919;42.648;23.384;2023-06-10T03:23:19;94091.41;;;16.22;100.00
56052;BME280;41919;42.648;23.384;2023-06-10T03:25:45;94177.91;;;16.79;100.00
56052;BME280;41919;42.648;23.384;2023-06-10T03:28:10;94159.03;;;16.93;100.00
56052;BME280;41919;42.648;23.384;2023-06-10T03:30:36;94174.00;;;17.19;100.00
56052;BME280;41919;42.648;23.384;2023-06-10T03:33:02;94173.13;;;17.46;100.00
56052;BME280;41919;42.648;23.384;2023-06-10T03:35:27;94127.63;;;17.34;100.00
56052;BME280;41919;42.648;23.384;2023-06-10T03:37:52;94154.19;;;17.64;100.00
56052;BME280;41919;42.648;23.384;2023-06-10T03:40:18;94186.66;;;18.02;100.00
56052;BME280;41919;42.648;23.384;2023-06-10T03:42:43;94124.66;;;17.83;100.00
56052;BME280;41919;42.648;23.384;2023-06-10T03:45:09;94187.53;;;18.34;100.00
56052;BME280;41919;42.648;23.384;2023-06-10T03:47:35;94178.25;;;18.36;100.00
56052;BME280;41919;42.648;23.384;2023-06-10T03:50:05;94194.19;;;18.57;100.00
56052;BME280;41919;42.648;23.384;2023-06-10T03:52:31;94180.97;;;18.57;100.00
56052;BME280;41919;42.648;23.384;2023-06-10T03:54:56;94178.53;;;18.50;100.00
56052;BME280;41919;42.648;23.384;2023-06-10T03:57:22;94187.53;;;18.44;100.00
56052;BME280;41919;42.648;23.384;2023-06-10T03:59:47;94191.75;;;18.30;100.00
56052;BME280;41919;42.648;23.384;2023-06-10T04:02:13;94173.44;;;18.13;100.00
56052;BME280;41919;42.648;23.384;2023-06-10T04:04:38;94192.00;;;18.28;100.00
56052;BME280;41919;42.648;23.384;2023-06-10T04:07:04;94134.50;;;17.93;100.00
56052;BME280;41919;42.648;23.384;2023-06-10T04:09:30;94178.78;;;18.28;100.00
56052;BME280;41919;42.648;23.384;2023-06-10T04:11:56;94196.81;;;18.41;100.00
56052;BME280;41919;42.648;23.384;2023-06-10T04:14:21;94140.09;;;18.12;100.00
56052;BME280;41919;42.648;23.384;2023-06-10T04:16:47;94200.53;;;18.56;100.00
56052;BME280;41919;42.648;23.384;2023-06-10T04:19:12;94194.19;;;18.57;100.00
56052;BME280;41919;42.648;23.384;2023-06-10T04:21:38;94140.16;;;18.22;100.00
56052;BME280;41919;42.648;23.384;2023-06-10T04:24:03;94183.59;;;18.52;100.00
56052;BME280;41919;42.648;23.384;2023-06-10T04:26:29;94136.16;;;18.09;100.00
56052;BME280;41919;42.648;23.384;2023-06-10T04:28:54;94193.53;;;18.09;100.00
56052;BME280;41919;42.648;23.384;2023-06-10T04:31:19;94192.28;;;17.69;100.00
56052;BME280;41919;42.648;23.384;2023-06-10T04:33:46;94199.47;;;17.36;100.00
56052;BME280;41919;42.648;23.384;2023-06-10T04:36:11;94190.38;;;17.21;100.00
56052;BME280;41919;42.648;23.384;2023-06-10T04:38:36;94195.50;;;16.96;100.00
56052;BME280;41919;42.648;23.384;2023-06-10T04:41:02;94158.03;;;16.66;100.00
56052;BME280;41919;42.648;23.384;2023-06-10T04:43:27;94198.38;;;16.94;100.00
56052;BME280;41919;42.648;23.384;2023-06-10T04:45:56;94207.69;;;16.75;100.00
56052;BME280;41919;42.648;23.384;2023-06-10T04:48:21;94209.19;;;16.65;100.00
56052;BME280;41919;42.648;23.384;2023-06-10T04:50:48;94173.28;;;16.37;100.00
56052;BME280;41919;42.648;23.384;2023-06-10T04:53:14;94133.09;;;15.98;100.00
56052;BME280;41919;42.648;23.384;2023-06-10T04:55:40;94203.91;;;16.38;100.00
56052;BME280;41919;42.648;23.384;2023-06-10T04:58:05;94202.75;;;16.29;100.00
56052;BME280;41919;42.648;23.384;2023-06-10T05:00:31;94149.75;;;16.03;100.00
56052;BME280;41919;42.648;23.384;2023-06-10T05:02:57;94200.28;;;16.44;100.00
56052;BME280;41919;42.648;23.384;2023-06-10T05:05:22;94203.84;;;16.60;100.00
56052;BME280;41919;42.648;23.384;2023-06-10T05:07:48;94200.25;;;16.72;100.00
56052;BME280;41919;42.648;23.384;2023-06-10T05:10:13;94190.72;;;16.65;100.00
56052;BME280;41919;42.648;23.384;2023-06-10T05:12:39;94201.97;;;16.56;100.00
56052;BME280;41919;42.648;23.384;2023-06-10T05:15:06;94134.44;;;16.00;100.00
56052;BME280;41919;42.648;23.384;2023-06-10T05:17:32;94198.19;;;16.46;100.00
56052;BME280;41919;42.648;23.384;2023-06-10T05:19:57;94180.25;;;16.49;100.00
56052;BME280;41919;42.648;23.384;2023-06-10T05:22:23;94093.59;;;16.03;100.00
56052;BME280;41919;42.648;23.384;2023-06-10T05:24:52;94133.78;;;16.42;100.00
56052;BME280;41919;42.648;23.384;2023-06-10T05:27:18;94178.34;;;16.98;100.00
56052;BME280;41919;42.648;23.384;2023-06-10T05:29:44;94125.19;;;16.84;100.00
56052;BME280;41919;42.648;23.384;2023-06-10T05:32:10;94178.84;;;17.33;100.00
56052;BME280;41919;42.648;23.384;2023-06-10T05:34:36;94187.72;;;17.59;100.00
56052;BME280;41919;42.648;23.384;2023-06-10T05:37:02;94184.59;;;17.67;100.00
56052;BME280;41919;42.648;23.384;2023-06-10T05:39:28;94190.25;;;17.86;100.00
56052;BME280;41919;42.648;23.384;2023-06-10T05:41:53;94179.72;;;17.91;100.00
56052;BME280;41919;42.648;23.384;2023-06-10T05:44:19;94132.00;;;17.60;100.00
56052;BME280;41919;42.648;23.384;2023-06-10T05:46:44;94188.28;;;18.24;100.00
56052;BME280;41919;42.648;23.384;2023-06-10T05:49:10;94139.06;;;18.02;100.00
56052;BME280;41919;42.648;23.384;2023-06-10T05:51:35;94179.34;;;18.56;100.00
56052;BME280;41919;42.648;23.384;2023-06-10T05:54:02;94134.63;;;18.39;100.00
56052;BME280;41919;42.648;23.384;2023-06-10T05:56:27;94202.47;;;18.91;100.00
56052;BME280;41919;42.648;23.384;2023-06-10T05:58:53;94161.16;;;18.90;100.00
56052;BME280;41919;42.648;23.384;2023-06-10T06:01:18;94204.84;;;19.34;100.00
56052;BME280;41919;42.648;23.384;2023-06-10T06:03:44;94148.41;;;19.08;100.00
56052;BME280;41919;42.648;23.384;2023-06-10T06:06:09;94164.28;;;19.38;100.00
56052;BME280;41919;42.648;23.384;2023-06-10T06:08:35;94200.50;;;19.84;100.00
56052;BME280;41919;42.648;23.384;2023-06-10T06:11:00;94113.66;;;19.40;100.00
56052;BME280;41919;42.648;23.384;2023-06-10T06:13:25;94199.19;;;19.82;100.00
56052;BME280;41919;42.648;23.384;2023-06-10T06:15:51;94138.28;;;19.56;100.00
56052;BME280;41919;42.648;23.384;2023-06-10T06:18:16;94173.94;;;20.05;100.00
56052;BME280;41919;42.648;23.384;2023-06-10T06:20:43;94212.56;;;20.21;100.00
56052;BME280;41919;42.648;23.384;2023-06-10T06:23:09;94207.25;;;20.26;100.00
56052;BME280;41919;42.648;23.384;2023-06-10T06:25:36;94205.69;;;20.25;100.00
56052;BME280;41919;42.648;23.384;2023-06-10T06:28:05;94207.31;;;20.06;100.00
56052;BME280;41919;42.648;23.384;2023-06-10T06:30:31;94203.09;;;20.10;100.00
56052;BME280;41919;42.648;23.384;2023-06-10T06:32:56;94176.09;;;19.92;100.00
56052;BME280;41919;42.648;23.384;2023-06-10T06:35:21;94201.22;;;20.05;100.00
56052;BME280;41919;42.648;23.384;2023-06-10T06:37:47;94199.91;;;20.08;100.00
56052;BME280;41919;42.648;23.384;2023-06-10T06:40:12;94134.22;;;19.89;100.00
56052;BME280;41919;42.648;23.384;2023-06-10T06:42:38;94206.56;;;20.55;100.00
56052;BME280;41919;42.648;23.384;2023-06-10T06:45:04;94178.41;;;20.64;100.00
56052;BME280;41919;42.648;23.384;2023-06-10T06:47:29;94146.56;;;20.64;100.00
56052;BME280;41919;42.648;23.384;2023-06-10T06:49:55;94030.19;;;20.03;100.00
56052;BME280;41919;42.648;23.384;2023-06-10T06:52:20;94104.75;;;20.41;100.00
56052;BME280;41919;42.648;23.384;2023-06-10T06:54:47;94165.91;;;20.70;100.00
56052;BME280;41919;42.648;23.384;2023-06-10T06:57:13;94185.91;;;20.91;100.00
56052;BME280;41919;42.648;23.384;2023-06-10T06:59:38;94183.66;;;21.09;100.00
56052;BME280;41919;42.648;23.384;2023-06-10T07:02:04;94170.09;;;21.10;100.00
56052;BME280;41919;42.648;23.384;2023-06-10T07:04:29;94139.09;;;21.01;100.00
56052;BME280;41919;42.648;23.384;2023-06-10T07:06:55;94160.31;;;21.35;100.00
56052;BME280;41919;42.648;23.384;2023-06-10T07:09:21;94177.00;;;21.70;100.00
56052;BME280;41919;42.648;23.384;2023-06-10T07:11:46;94185.22;;;21.98;100.00
56052;BME280;41919;42.648;23.384;2023-06-10T07:14:12;94147.44;;;21.96;100.00
56052;BME280;41919;42.648;23.384;2023-06-10T07:16:37;94185.06;;;22.32;100.00
56052;BME280;41919;42.648;23.384;2023-06-10T07:19:03;94168.56;;;22.54;100.00
56052;BME280;41919;42.648;23.384;2023-06-10T07:23:55;94192.97;;;23.32;100.00
56052;BME280;41919;42.648;23.384;2023-06-10T07:26:23;94157.00;;;24.04;100.00
56052;BME280;41919;42.648;23.384;2023-06-10T07:28:49;94171.13;;;23.91;100.00
56052;BME280;41919;42.648;23.384;2023-06-10T07:31:15;94174.66;;;24.27;100.00
56052;BME280;41919;42.648;23.384;2023-06-10T07:33:40;94165.16;;;24.49;100.00
56052;BME280;41919;42.648;23.384;2023-06-10T07:36:07;94174.91;;;24.68;100.00
56052;BME280;41919;42.648;23.384;2023-06-10T07:38:32;94179.50;;;24.90;100.00
56052;BME280;41919;42.648;23.384;2023-06-10T07:40:58;94162.34;;;25.58;100.00
56052;BME280;41919;42.648;23.384;2023-06-10T07:43:24;94171.69;;;26.18;70.69
56052;BME280;41919;42.648;23.384;2023-06-10T07:45:49;94165.91;;;26.34;72.36
56052;BME280;41919;42.648;23.384;2023-06-10T07:48:15;94174.66;;;26.74;69.70
56052;BME280;41919;42.648;23.384;2023-06-10T07:50:40;94135.84;;;26.63;67.23
56052;BME280;41919;42.648;23.384;2023-06-10T07:53:06;94174.47;;;27.06;65.40
56052;BME280;41919;42.648;23.384;2023-06-10T07:55:31;94178.41;;;27.52;64.93
56052;BME280;41919;42.648;23.384;2023-06-10T07:57:57;94113.84;;;27.40;64.14
56052;BME280;41919;42.648;23.384;2023-06-10T08:00:23;94167.13;;;27.67;63.66
56052;BME280;41919;42.648;23.384;2023-06-10T08:02:49;94115.25;;;27.84;62.88
56052;BME280;41919;42.648;23.384;2023-06-10T08:05:15;94158.09;;;27.81;63.31
56052;BME280;41919;42.648;23.384;2023-06-10T08:07:41;94176.50;;;27.44;61.88
56052;BME280;41919;42.648;23.384;2023-06-10T08:10:07;94095.63;;;26.46;63.32
56052;BME280;41919;42.648;23.384;2023-06-10T08:12:33;94168.03;;;26.89;63.57
56052;BME280;41919;42.648;23.384;2023-06-10T08:14:59;94105.25;;;26.90;61.28
56052;BME280;41919;42.648;23.384;2023-06-10T08:17:25;94146.84;;;27.78;55.45
56052;BME280;41919;42.648;23.384;2023-06-10T08:19:50;94159.22;;;28.39;54.53
56052;BME280;41919;42.648;23.384;2023-06-10T08:22:16;94146.28;;;28.62;49.45
56052;BME280;41919;42.648;23.384;2023-06-10T08:24:41;94107.06;;;28.40;46.59
56052;BME280;41919;42.648;23.384;2023-06-10T08:27:07;94117.00;;;29.03;43.78
56052;BME280;41919;42.648;23.384;2023-06-10T08:29:32;94137.81;;;29.15;37.39
56052;BME280;41919;42.648;23.384;2023-06-10T08:31:58;94152.31;;;28.59;39.45
56052;BME280;41919;42.648;23.384;2023-06-10T08:34:23;94140.25;;;28.86;39.74
56052;BME280;41919;42.648;23.384;2023-06-10T08:36:49;94156.75;;;29.18;37.93
56052;BME280;41919;42.648;23.384;2023-06-10T08:39:21;94124.59;;;29.22;38.75
56052;BME280;41919;42.648;23.384;2023-06-10T08:42:04;94096.03;;;29.29;36.87
56052;BME280;41919;42.648;23.384;2023-06-10T08:44:35;94140.22;;;29.07;36.85
56052;BME280;41919;42.648;23.384;2023-06-10T08:47:06;94083.84;;;29.11;36.88
56052;BME280;41919;42.648;23.384;2023-06-10T08:49:38;94144.91;;;29.19;37.90
56052;BME280;41919;42.648;23.384;2023-06-10T08:52:07;94148.75;;;29.09;37.67
56052;BME280;41919;42.648;23.384;2023-06-10T08:54:33;94126.41;;;28.97;37.05
56052;BME280;41919;42.648;23.384;2023-06-10T08:57:06;94109.59;;;29.00;37.96
56052;BME280;41919;42.648;23.384;2023-06-10T08:59:32;94123.28;;;29.07;36.23
56052;BME280;41919;42.648;23.384;2023-06-10T09:01:58;94122.38;;;28.69;36.96
56052;BME280;41919;42.648;23.384;2023-06-10T09:04:26;94077.06;;;27.78;38.38
56052;BME280;41919;42.648;23.384;2023-06-10T09:06:52;94122.19;;;27.94;40.06
56052;BME280;41919;42.648;23.384;2023-06-10T09:09:19;94072.28;;;27.93;38.30
56052;BME280;41919;42.648;23.384;2023-06-10T09:11:47;94116.81;;;28.53;38.50
56052;BME280;41919;42.648;23.384;2023-06-10T09:14:13;94121.09;;;28.88;37.91
56052;BME280;41919;42.648;23.384;2023-06-10T09:16:39;94119.00;;;28.72;38.55
56052;BME280;41919;42.648;23.384;2023-06-10T09:19:06;93957.97;;;27.32;38.59
56052;BME280;41919;42.648;23.384;2023-06-10T09:21:36;94110.69;;;28.86;38.82
56052;BME280;41919;42.648;23.384;2023-06-10T09:24:01;94081.00;;;28.95;36.14
56052;BME280;41919;42.648;23.384;2023-06-10T09:26:28;94075.75;;;29.11;36.18
56052;BME280;41919;42.648;23.384;2023-06-10T09:29:04;94107.25;;;29.31;33.56
56052;BME280;41919;42.648;23.384;2023-06-10T09:31:30;94066.31;;;29.26;33.51
56052;BME280;41919;42.648;23.384;2023-06-10T09:34:16;94109.53;;;29.54;34.90
56052;BME280;41919;42.648;23.384;2023-06-10T09:36:42;94105.28;;;29.65;34.48
56052;BME280;41919;42.648;23.384;2023-06-10T09:39:18;94089.09;;;29.28;34.42
56052;BME280;41919;42.648;23.384;2023-06-10T09:41:45;94111.53;;;29.32;33.91
56052;BME280;41919;42.648;23.384;2023-06-10T09:44:12;94088.41;;;29.31;33.78
56052;BME280;41919;42.648;23.384;2023-06-10T09:46:38;94084.72;;;29.48;33.92
56052;BME280;41919;42.648;23.384;2023-06-10T09:49:04;94045.00;;;28.87;35.85
56052;BME280;41919;42.648;23.384;2023-06-10T09:51:29;94043.06;;;28.76;36.31
56052;BME280;41919;42.648;23.384;2023-06-10T09:53:55;94096.81;;;28.97;36.68
56052;BME280;41919;42.648;23.384;2023-06-10T09:56:21;94100.41;;;29.01;36.83
56052;BME280;41919;42.648;23.384;2023-06-10T09:58:49;94033.53;;;28.24;38.22
56052;BME280;41919;42.648;23.384;2023-06-10T10:01:18;94079.00;;;28.29;37.91
56052;BME280;41919;42.648;23.384;2023-06-10T10:03:50;94083.56;;;28.07;38.37
56052;BME280;41919;42.648;23.384;2023-06-10T10:06:17;94044.19;;;27.90;38.53
56052;BME280;41919;42.648;23.384;2023-06-10T10:08:45;94087.13;;;28.41;38.26
56052;BME280;41919;42.648;23.384;2023-06-10T10:11:10;94083.66;;;28.20;37.06
56052;BME280;41919;42.648;23.384;2023-06-10T10:13:37;94048.47;;;27.83;37.60
56052;BME280;41919;42.648;23.384;2023-06-10T10:16:11;94042.66;;;27.81;38.38
56052;BME280;41919;42.648;23.384;2023-06-10T10:18:38;94071.91;;;28.03;38.76
56052;BME280;41919;42.648;23.384;2023-06-10T10:21:06;94060.78;;;27.84;39.58
56052;BME280;41919;42.648;23.384;2023-06-10T10:23:51;94063.97;;;27.77;38.79
56052;BME280;41919;42.648;23.384;2023-06-10T10:26:18;94035.44;;;27.34;38.91
56052;BME280;41919;42.648;23.384;2023-06-10T10:28:50;94069.91;;;27.62;37.74
56052;BME280;41919;42.648;23.384;2023-06-10T10:31:18;94072.91;;;27.60;37.80
56052;BME280;41919;42.648;23.384;2023-06-10T10:36:09;94029.47;;;27.28;37.28
56052;BME280;41919;42.648;23.384;2023-06-10T10:38:35;94021.72;;;27.27;39.57
56052;BME280;41919;42.648;23.384;2023-06-10T10:41:01;94063.25;;;27.29;38.83
56052;BME280;41919;42.648;23.384;2023-06-10T10:43:28;94034.19;;;27.31;36.41
56052;BME280;41919;42.648;23.384;2023-06-10T10:46:01;94048.91;;;27.55;37.63
56052;BME280;41919;42.648;23.384;2023-06-10T10:48:39;94053.47;;;27.07;39.61
56052;BME280;41919;42.648;23.384;2023-06-10T10:51:06;93999.34;;;26.23;39.68
56052;BME280;41919;42.648;23.384;2023-06-10T10:53:32;93974.09;;;25.63;41.03
56052;BME280;41919;42.648;23.384;2023-06-10T10:56:12;93976.47;;;25.73;43.24
56052;BME280;41919;42.648;23.384;2023-06-10T10:58:38;94015.72;;;26.04;41.36
56052;BME280;41919;42.648;23.384;2023-06-10T11:01:11;94028.66;;;26.11;43.41
56052;BME280;41919;42.648;23.384;2023-06-10T11:03:44;94046.78;;;26.40;45.68
56052;BME280;41919;42.648;23.384;2023-06-10T11:06:19;94038.44;;;26.68;44.47
56052;BME280;41919;42.648;23.384;2023-06-10T11:14:07;94002.81;;;26.67;42.27
56052;BME280;41919;42.648;23.384;2023-06-10T11:16:59;94003.75;;;26.63;42.54
56052;BME280;41919;42.648;23.384;2023-06-10T11:19:35;93984.66;;;26.55;40.98
56052;BME280;41919;42.648;23.384;2023-06-10T11:22:08;93928.31;;;26.26;41.75
56052;BME280;41919;42.648;23.384;2023-06-10T11:24:35;93971.31;;;26.47;42.94
56052;BME280;41919;42.648;23.384;2023-06-10T11:32:20;93955.88;;;26.00;40.74
56052;BME280;41919;42.648;23.384;2023-06-10T11:34:52;93996.66;;;26.58;42.09
56052;BME280;41919;42.648;23.384;2023-06-10T11:37:18;93993.34;;;26.61;40.96
56052;BME280;41919;42.648;23.384;2023-06-10T11:39:44;93954.25;;;26.51;40.95
56052;BME280;41919;42.648;23.384;2023-06-10T11:42:10;93999.06;;;27.07;40.75
56052;BME280;41919;42.648;23.384;2023-06-10T11:44:36;93997.72;;;27.30;39.64
56052;BME280;41919;42.648;23.384;2023-06-10T11:47:03;93983.97;;;27.41;44.77
56052;BME280;41919;42.648;23.384;2023-06-10T11:49:28;93994.94;;;27.18;40.17
56052;BME280;41919;42.648;23.384;2023-06-10T11:51:54;93943.00;;;26.84;41.46
56052;BME280;41919;42.648;23.384;2023-06-10T11:54:20;93925.91;;;26.59;40.01
56052;BME280;41919;42.648;23.384;2023-06-10T11:56:46;93984.97;;;26.80;41.17
56052;BME280;41919;42.648;23.384;2023-06-10T11:59:12;93975.41;;;27.09;39.69
56052;BME280;41919;42.648;23.384;2023-06-10T12:01:42;93983.50;;;27.38;39.50
56052;BME280;41919;42.648;23.384;2023-06-10T12:04:17;93941.44;;;27.22;37.62
56052;BME280;41919;42.648;23.384;2023-06-10T12:06:50;93983.13;;;27.49;39.27
56052;BME280;41919;42.648;23.384;2023-06-10T12:09:25;93982.00;;;27.50;38.59
56052;BME280;41919;42.648;23.384;2023-06-10T12:11:52;93983.66;;;27.63;38.84
56052;BME280;41919;42.648;23.384;2023-06-10T12:19:57;93920.53;;;27.36;37.29
56052;BME280;41919;42.648;23.384;2023-06-10T12:22:23;93979.75;;;27.22;37.67
56052;BME280;41919;42.648;23.384;2023-06-10T12:25:02;93968.50;;;27.37;37.07
56052;BME280;41919;42.648;23.384;2023-06-10T12:27:31;93971.75;;;27.52;36.63
56052;BME280;41919;42.648;23.384;2023-06-10T12:29:57;93957.16;;;27.41;36.46
56052;BME280;41919;42.648;23.384;2023-06-10T12:32:39;93965.25;;;27.23;36.05
56052;BME280;41919;42.648;23.384;2023-06-10T12:35:06;93922.69;;;26.83;36.39
56052;BME280;41919;42.648;23.384;2023-06-10T12:37:32;93954.03;;;27.30;36.19
56052;BME280;41919;42.648;23.384;2023-06-10T12:40:03;93968.03;;;27.65;35.60
56052;BME280;41919;42.648;23.384;2023-06-10T12:42:29;93958.94;;;27.78;34.83
56052;BME280;41919;42.648;23.384;2023-06-10T12:44:56;93898.50;;;27.51;35.15
56052;BME280;41919;42.648;23.384;2023-06-10T12:47:34;93951.59;;;27.88;34.80
56052;BME280;41919;42.648;23.384;2023-06-10T12:50:01;93895.81;;;27.72;34.11
56052;BME280;41919;42.648;23.384;2023-06-10T12:52:27;93943.66;;;28.33;34.35
56052;BME280;41919;42.648;23.384;2023-06-10T12:54:54;93939.25;;;28.16;35.08
56052;BME280;41919;42.648;23.384;2023-06-10T12:57:21;93956.00;;;28.34;35.03
56052;BME280;41919;42.648;23.384;2023-06-10T12:59:46;93967.97;;;28.37;34.44
56052;BME280;41919;42.648;23.384;2023-06-10T13:02:20;93960.53;;;28.22;34.74
56052;BME280;41919;42.648;23.384;2023-06-10T13:04:49;93951.69;;;28.21;35.04
56052;BME280;41919;42.648;23.384;2023-06-10T13:07:15;93951.28;;;28.31;32.43